sensor_id;sensor_type;location;lat;lon;timestamp;temperature;humidity
22035;DHT22;11181;51.002;4.356;2023-06-19T00:01:34;21.20;99.90
22035;DHT22;11181;51.002;4.356;2023-06-19T00:04:01;21.20;99.90
22035;DHT22;11181;51.002;4.356;2023-06-19T00:06:27;21.20;99.90
22035;DHT22;11181;51.002;4.356;2023-06-19T00:08:56;21.20;99.90
22035;DHT22;11181;51.002;4.356;2023-06-19T00:11:23;21.10;99.90
22035;DHT22;11181;51.002;4.356;2023-06-19T00:13:50;21.00;99.90
22035;DHT22;11181;51.002;4.356;2023-06-19T00:16:17;21.00;99.90
22035;DHT22;11181;51.002;4.356;2023-06-19T00:18:44;21.10;99.90
22035;DHT22;11181;51.002;4.356;2023-06-19T00:21:11;21.10;99.90
22035;DHT22;11181;51.002;4.356;2023-06-19T00:23:38;21.10;99.90
22035;DHT22;11181;51.002;4.356;2023-06-19T00:26:06;21.20;99.90
22035;DHT22;11181;51.002;4.356;2023-06-19T00:28:33;21.20;99.90
22035;DHT22;11181;51.002;4.356;2023-06-19T00:31:04;21.10;99.90
22035;DHT22;11181;51.002;4.356;2023-06-19T00:33:32;21.00;99.90
22035;DHT22;11181;51.002;4.356;2023-06-19T00:35:59;20.90;99.90
22035;DHT22;11181;51.002;4.356;2023-06-19T00:38:26;20.90;99.90
22035;DHT22;11181;51.002;4.356;2023-06-19T00:40:53;21.00;99.90
22035;DHT22;11181;51.002;4.356;2023-06-19T00:43:22;21.00;99.90
22035;DHT22;11181;51.002;4.356;2023-06-19T00:45:49;21.00;99.90
22035;DHT22;11181;51.002;4.356;2023-06-19T00:48:16;21.10;99.90
22035;DHT22;11181;51.002;4.356;2023-06-19T00:50:43;21.10;99.90
22035;DHT22;11181;51.002;4.356;2023-06-19T00:53:10;21.10;99.90
22035;DHT22;11181;51.002;4.356;2023-06-19T00:55:37;20.90;99.90
22035;DHT22;11181;51.002;4.356;2023-06-19T00:58:05;20.90;99.90
22035;DHT22;11181;51.002;4.356;2023-06-19T01:00:33;20.90;99.90
22035;DHT22;11181;51.002;4.356;2023-06-19T01:03:00;21.10;99.90
22035;DHT22;11181;51.002;4.356;2023-06-19T01:05:27;21.20;99.90
22035;DHT22;11181;51.002;4.356;2023-06-19T01:07:59;21.20;99.90
22035;DHT22;11181;51.002;4.356;2023-06-19T01:10:36;21.30;99.90
22035;DHT22;11181;51.002;4.356;2023-06-19T01:13:21;21.20;99.90
22035;DHT22;11181;51.002;4.356;2023-06-19T01:15:50;21.10;99.90
22035;DHT22;11181;51.002;4.356;2023-06-19T01:18:17;21.20;99.90
22035;DHT22;11181;51.002;4.356;2023-06-19T01:20:45;21.20;99.90
22035;DHT22;11181;51.002;4.356;2023-06-19T01:23:13;21.30;99.90
22035;DHT22;11181;51.002;4.356;2023-06-19T01:25:40;21.30;99.90
22035;DHT22;11181;51.002;4.356;2023-06-19T01:28:09;21.20;99.90
22035;DHT22;11181;51.002;4.356;2023-06-19T01:30:38;21.10;99.90
22035;DHT22;11181;51.002;4.356;2023-06-19T01:33:09;21.00;99.90
22035;DHT22;11181;51.002;4.356;2023-06-19T01:35:41;20.90;99.90
22035;DHT22;11181;51.002;4.356;2023-06-19T01:38:08;20.80;99.90
22035;DHT22;11181;51.002;4.356;2023-06-19T01:40:38;20.90;99.90
22035;DHT22;11181;51.002;4.356;2023-06-19T01:43:07;20.90;99.90
22035;DHT22;11181;51.002;4.356;2023-06-19T01:45:34;21.00;99.90
22035;DHT22;11181;51.002;4.356;2023-06-19T01:48:02;21.00;99.90
22035;DHT22;11181;51.002;4.356;2023-06-19T01:50:29;21.00;99.90
22035;DHT22;11181;51.002;4.356;2023-06-19T01:52:56;20.90;99.90
22035;DHT22;11181;51.002;4.356;2023-06-19T01:55:22;20.90;99.90
22035;DHT22;11181;51.002;4.356;2023-06-19T01:57:51;21.00;99.90
22035;DHT22;11181;51.002;4.356;2023-06-19T02:00:18;20.90;99.90
22035;DHT22;11181;51.002;4.356;2023-06-19T02:02:45;20.90;99.90
22035;DHT22;11181;51.002;4.356;2023-06-19T02:05:12;20.90;99.90
22035;DHT22;11181;51.002;4.356;2023-06-19T02:07:39;21.00;99.90
22035;DHT22;11181;51.002;4.356;2023-06-19T02:10:07;21.00;99.90
22035;DHT22;11181;51.002;4.356;2023-06-19T02:12:34;21.10;99.90
22035;DHT22;11181;51.002;4.356;2023-06-19T02:15:03;21.10;99.90
22035;DHT22;11181;51.002;4.356;2023-06-19T02:17:30;21.20;99.90
22035;DHT22;11181;51.002;4.356;2023-06-19T02:19:57;21.20;99.90
22035;DHT22;11181;51.002;4.356;2023-06-19T02:22:24;21.20;99.90
22035;DHT22;11181;51.002;4.356;2023-06-19T02:24:51;21.20;99.90
22035;DHT22;11181;51.002;4.356;2023-06-19T02:27:18;21.30;99.90
22035;DHT22;11181;51.002;4.356;2023-06-19T02:29:45;21.30;99.90
22035;DHT22;11181;51.002;4.356;2023-06-19T02:32:13;21.30;99.90
22035;DHT22;11181;51.002;4.356;2023-06-19T02:34:40;21.40;99.90
22035;DHT22;11181;51.002;4.356;2023-06-19T02:37:07;21.40;99.90
22035;DHT22;11181;51.002;4.356;2023-06-19T02:39:34;21.40;99.90
22035;DHT22;11181;51.002;4.356;2023-06-19T02:42:01;21.30;99.90
22035;DHT22;11181;51.002;4.356;2023-06-19T02:44:28;21.30;99.90
22035;DHT22;11181;51.002;4.356;2023-06-19T02:46:54;21.30;99.90
22035;DHT22;11181;51.002;4.356;2023-06-19T02:49:23;21.40;99.90
22035;DHT22;11181;51.002;4.356;2023-06-19T02:51:49;21.60;99.90
22035;DHT22;11181;51.002;4.356;2023-06-19T02:54:16;21.60;99.90
22035;DHT22;11181;51.002;4.356;2023-06-19T02:56:43;21.70;99.90
22035;DHT22;11181;51.002;4.356;2023-06-19T02:59:10;21.70;99.90
22035;DHT22;11181;51.002;4.356;2023-06-19T03:01:37;21.80;99.90
22035;DHT22;11181;51.002;4.356;2023-06-19T03:04:04;21.80;99.90
22035;DHT22;11181;51.002;4.356;2023-06-19T03:06:32;21.80;99.90
22035;DHT22;11181;51.002;4.356;2023-06-19T03:09:05;21.80;99.90
22035;DHT22;11181;51.002;4.356;2023-06-19T03:11:38;21.70;99.90
22035;DHT22;11181;51.002;4.356;2023-06-19T03:14:05;21.70;99.90
22035;DHT22;11181;51.002;4.356;2023-06-19T03:16:33;21.70;99.90
22035;DHT22;11181;51.002;4.356;2023-06-19T03:19:00;21.70;99.90
22035;DHT22;11181;51.002;4.356;2023-06-19T03:21:27;21.70;99.90
22035;DHT22;11181;51.002;4.356;2023-06-19T03:23:56;21.70;99.90
22035;DHT22;11181;51.002;4.356;2023-06-19T03:26:24;21.70;99.90
22035;DHT22;11181;51.002;4.356;2023-06-19T03:28:51;21.60;99.90
22035;DHT22;11181;51.002;4.356;2023-06-19T03:31:18;21.60;99.90
22035;DHT22;11181;51.002;4.356;2023-06-19T03:33:45;21.50;99.90
22035;DHT22;11181;51.002;4.356;2023-06-19T03:36:12;21.40;99.90
22035;DHT22;11181;51.002;4.356;2023-06-19T03:38:39;21.30;99.90
22035;DHT22;11181;51.002;4.356;2023-06-19T03:41:07;21.30;99.90
22035;DHT22;11181;51.002;4.356;2023-06-19T03:43:34;21.10;99.90
22035;DHT22;11181;51.002;4.356;2023-06-19T03:46:01;21.00;99.90
22035;DHT22;11181;51.002;4.356;2023-06-19T03:48:28;20.80;99.90
22035;DHT22;11181;51.002;4.356;2023-06-19T03:50:55;20.80;99.90
22035;DHT22;11181;51.002;4.356;2023-06-19T03:53:21;20.70;99.90
22035;DHT22;11181;51.002;4.356;2023-06-19T03:55:48;20.60;99.90
22035;DHT22;11181;51.002;4.356;2023-06-19T03:58:16;20.60;99.90
22035;DHT22;11181;51.002;4.356;2023-06-19T04:00:43;20.60;99.90
22035;DHT22;11181;51.002;4.356;2023-06-19T04:03:10;20.60;99.90
22035;DHT22;11181;51.002;4.356;2023-06-19T04:05:37;20.60;99.90
22035;DHT22;11181;51.002;4.356;2023-06-19T04:08:04;20.60;99.90
22035;DHT22;11181;51.002;4.356;2023-06-19T04:10:31;20.60;99.90
22035;DHT22;11181;51.002;4.356;2023-06-19T04:12:58;20.70;99.90
22035;DHT22;11181;51.002;4.356;2023-06-19T04:15:26;20.80;99.90
22035;DHT22;11181;51.002;4.356;2023-06-19T04:17:53;20.80;99.90
22035;DHT22;11181;51.002;4.356;2023-06-19T04:20:20;20.80;99.90
22035;DHT22;11181;51.002;4.356;2023-06-19T04:22:47;20.90;99.90
22035;DHT22;11181;51.002;4.356;2023-06-19T04:25:14;20.90;99.90
22035;DHT22;11181;51.002;4.356;2023-06-19T04:27:40;20.90;99.90
22035;DHT22;11181;51.002;4.356;2023-06-19T04:30:11;20.90;99.90
22035;DHT22;11181;51.002;4.356;2023-06-19T04:32:40;20.90;99.90
22035;DHT22;11181;51.002;4.356;2023-06-19T04:35:07;20.80;99.90
22035;DHT22;11181;51.002;4.356;2023-06-19T04:37:34;20.80;99.90
22035;DHT22;11181;51.002;4.356;2023-06-19T04:40:01;20.90;99.90
22035;DHT22;11181;51.002;4.356;2023-06-19T04:42:29;20.90;99.90
22035;DHT22;11181;51.002;4.356;2023-06-19T04:44:56;20.90;99.90
22035;DHT22;11181;51.002;4.356;2023-06-19T04:47:24;21.00;99.90
22035;DHT22;11181;51.002;4.356;2023-06-19T04:49:53;21.00;99.90
22035;DHT22;11181;51.002;4.356;2023-06-19T04:52:19;21.00;99.90
22035;DHT22;11181;51.002;4.356;2023-06-19T04:54:46;21.00;99.90
22035;DHT22;11181;51.002;4.356;2023-06-19T04:57:14;21.00;99.90
22035;DHT22;11181;51.002;4.356;2023-06-19T04:59:42;21.00;99.90
22035;DHT22;11181;51.002;4.356;2023-06-19T05:02:09;21.00;99.90
22035;DHT22;11181;51.002;4.356;2023-06-19T05:04:36;21.00;99.90
22035;DHT22;11181;51.002;4.356;2023-06-19T05:07:05;20.90;99.90
22035;DHT22;11181;51.002;4.356;2023-06-19T05:09:32;20.80;99.90
22035;DHT22;11181;51.002;4.356;2023-06-19T05:11:59;20.70;99.90
22035;DHT22;11181;51.002;4.356;2023-06-19T05:14:26;20.80;99.90
22035;DHT22;11181;51.002;4.356;2023-06-19T05:16:53;20.70;99.90
22035;DHT22;11181;51.002;4.356;2023-06-19T05:19:20;20.60;99.90
22035;DHT22;11181;51.002;4.356;2023-06-19T05:21:47;20.40;99.90
22035;DHT22;11181;51.002;4.356;2023-06-19T05:24:15;20.30;99.90
22035;DHT22;11181;51.002;4.356;2023-06-19T05:26:42;20.30;99.90
22035;DHT22;11181;51.002;4.356;2023-06-19T05:29:09;20.30;99.90
22035;DHT22;11181;51.002;4.356;2023-06-19T05:31:36;20.20;99.90
22035;DHT22;11181;51.002;4.356;2023-06-19T05:34:03;20.20;99.90
22035;DHT22;11181;51.002;4.356;2023-06-19T05:36:30;20.20;99.90
22035;DHT22;11181;51.002;4.356;2023-06-19T05:38:57;20.20;99.90
22035;DHT22;11181;51.002;4.356;2023-06-19T05:41:25;20.10;99.90
22035;DHT22;11181;51.002;4.356;2023-06-19T05:43:52;20.00;99.90
22035;DHT22;11181;51.002;4.356;2023-06-19T05:46:19;19.90;99.90
22035;DHT22;11181;51.002;4.356;2023-06-19T05:48:47;19.90;99.90
22035;DHT22;11181;51.002;4.356;2023-06-19T05:51:14;19.80;99.90
22035;DHT22;11181;51.002;4.356;2023-06-19T05:53:41;19.70;99.90
22035;DHT22;11181;51.002;4.356;2023-06-19T05:56:08;19.70;99.90
22035;DHT22;11181;51.002;4.356;2023-06-19T05:58:36;19.80;99.90
22035;DHT22;11181;51.002;4.356;2023-06-19T06:01:04;19.70;99.90
22035;DHT22;11181;51.002;4.356;2023-06-19T06:03:32;19.80;99.90
22035;DHT22;11181;51.002;4.356;2023-06-19T06:05:59;19.90;99.90
22035;DHT22;11181;51.002;4.356;2023-06-19T06:08:28;20.00;99.90
22035;DHT22;11181;51.002;4.356;2023-06-19T06:10:55;20.10;99.90
22035;DHT22;11181;51.002;4.356;2023-06-19T06:13:22;20.10;99.90
22035;DHT22;11181;51.002;4.356;2023-06-19T06:15:51;20.20;99.90
22035;DHT22;11181;51.002;4.356;2023-06-19T06:18:18;20.30;99.90
22035;DHT22;11181;51.002;4.356;2023-06-19T06:20:45;20.30;99.90
22035;DHT22;11181;51.002;4.356;2023-06-19T06:23:12;20.30;99.90
22035;DHT22;11181;51.002;4.356;2023-06-19T06:25:39;20.30;99.90
22035;DHT22;11181;51.002;4.356;2023-06-19T06:28:06;20.40;99.90
22035;DHT22;11181;51.002;4.356;2023-06-19T06:30:33;20.40;99.90
22035;DHT22;11181;51.002;4.356;2023-06-19T06:33:02;20.50;99.90
22035;DHT22;11181;51.002;4.356;2023-06-19T06:35:29;20.50;99.90
22035;DHT22;11181;51.002;4.356;2023-06-19T06:37:56;20.60;99.90
22035;DHT22;11181;51.002;4.356;2023-06-19T06:40:23;20.70;99.90
22035;DHT22;11181;51.002;4.356;2023-06-19T06:42:50;20.80;99.90
22035;DHT22;11181;51.002;4.356;2023-06-19T06:45:16;20.80;99.90
22035;DHT22;11181;51.002;4.356;2023-06-19T06:47:43;20.80;99.90
22035;DHT22;11181;51.002;4.356;2023-06-19T06:50:12;20.80;99.90
22035;DHT22;11181;51.002;4.356;2023-06-19T06:52:39;20.90;99.90
22035;DHT22;11181;51.002;4.356;2023-06-19T06:55:07;20.90;99.90
22035;DHT22;11181;51.002;4.356;2023-06-19T06:57:34;21.00;99.90
22035;DHT22;11181;51.002;4.356;2023-06-19T07:00:01;21.20;99.90
22035;DHT22;11181;51.002;4.356;2023-06-19T07:02:29;21.40;99.90
22035;DHT22;11181;51.002;4.356;2023-06-19T07:04:55;21.50;99.90
22035;DHT22;11181;51.002;4.356;2023-06-19T07:07:24;21.50;99.90
22035;DHT22;11181;51.002;4.356;2023-06-19T07:09:50;21.70;99.90
22035;DHT22;11181;51.002;4.356;2023-06-19T07:12:17;21.80;99.90
22035;DHT22;11181;51.002;4.356;2023-06-19T07:14:44;21.70;99.90
22035;DHT22;11181;51.002;4.356;2023-06-19T07:17:11;21.70;99.90
22035;DHT22;11181;51.002;4.356;2023-06-19T07:19:38;21.80;99.90
22035;DHT22;11181;51.002;4.356;2023-06-19T07:22:06;22.00;99.90
22035;DHT22;11181;51.002;4.356;2023-06-19T07:24:34;21.90;99.90
22035;DHT22;11181;51.002;4.356;2023-06-19T07:27:01;21.90;99.90
22035;DHT22;11181;51.002;4.356;2023-06-19T07:29:28;21.90;99.90
22035;DHT22;11181;51.002;4.356;2023-06-19T07:31:55;22.00;99.90
22035;DHT22;11181;51.002;4.356;2023-06-19T07:34:21;22.20;99.90
22035;DHT22;11181;51.002;4.356;2023-06-19T07:36:48;22.30;99.90
22035;DHT22;11181;51.002;4.356;2023-06-19T07:39:16;22.40;99.90
22035;DHT22;11181;51.002;4.356;2023-06-19T07:41:44;22.20;99.90
22035;DHT22;11181;51.002;4.356;2023-06-19T07:44:11;22.10;99.90
22035;DHT22;11181;51.002;4.356;2023-06-19T07:46:38;22.20;99.90
22035;DHT22;11181;51.002;4.356;2023-06-19T07:49:05;22.30;99.90
22035;DHT22;11181;51.002;4.356;2023-06-19T07:51:32;22.30;99.90
22035;DHT22;11181;51.002;4.356;2023-06-19T07:53:59;22.30;99.90
22035;DHT22;11181;51.002;4.356;2023-06-19T07:56:26;22.40;99.90
22035;DHT22;11181;51.002;4.356;2023-06-19T07:58:54;22.30;99.90
22035;DHT22;11181;51.002;4.356;2023-06-19T08:01:21;22.40;99.90
22035;DHT22;11181;51.002;4.356;2023-06-19T08:03:48;22.40;99.90
22035;DHT22;11181;51.002;4.356;2023-06-19T08:06:14;22.40;99.90
22035;DHT22;11181;51.002;4.356;2023-06-19T08:08:41;22.50;99.90
22035;DHT22;11181;51.002;4.356;2023-06-19T08:11:08;22.60;99.90
22035;DHT22;11181;51.002;4.356;2023-06-19T08:13:35;22.70;99.90
22035;DHT22;11181;51.002;4.356;2023-06-19T08:16:04;22.90;99.90
22035;DHT22;11181;51.002;4.356;2023-06-19T08:18:31;23.00;99.90
22035;DHT22;11181;51.002;4.356;2023-06-19T08:20:58;23.40;99.90
22035;DHT22;11181;51.002;4.356;2023-06-19T08:23:25;23.60;99.90
22035;DHT22;11181;51.002;4.356;2023-06-19T08:25:52;23.80;99.90
22035;DHT22;11181;51.002;4.356;2023-06-19T08:28:19;23.90;99.90
22035;DHT22;11181;51.002;4.356;2023-06-19T08:30:46;23.90;99.90
22035;DHT22;11181;51.002;4.356;2023-06-19T08:33:14;23.70;99.90
22035;DHT22;11181;51.002;4.356;2023-06-19T08:35:42;23.70;99.90
22035;DHT22;11181;51.002;4.356;2023-06-19T08:38:09;23.90;99.90
22035;DHT22;11181;51.002;4.356;2023-06-19T08:40:37;24.00;99.90
22035;DHT22;11181;51.002;4.356;2023-06-19T08:43:04;24.10;99.90
22035;DHT22;11181;51.002;4.356;2023-06-19T08:45:30;24.10;99.90
22035;DHT22;11181;51.002;4.356;2023-06-19T08:47:58;24.00;99.90
22035;DHT22;11181;51.002;4.356;2023-06-19T08:50:26;24.00;99.90
22035;DHT22;11181;51.002;4.356;2023-06-19T08:52:54;24.20;99.90
22035;DHT22;11181;51.002;4.356;2023-06-19T08:55:21;24.40;99.90
22035;DHT22;11181;51.002;4.356;2023-06-19T08:57:49;24.50;99.90
22035;DHT22;11181;51.002;4.356;2023-06-19T09:00:23;24.60;99.90
22035;DHT22;11181;51.002;4.356;2023-06-19T09:02:51;24.70;99.90
22035;DHT22;11181;51.002;4.356;2023-06-19T09:05:19;24.70;99.90
22035;DHT22;11181;51.002;4.356;2023-06-19T09:07:56;24.90;99.90
22035;DHT22;11181;51.002;4.356;2023-06-19T09:10:24;25.00;99.90
22035;DHT22;11181;51.002;4.356;2023-06-19T09:12:58;25.10;99.90
22035;DHT22;11181;51.002;4.356;2023-06-19T09:15:28;25.20;99.90
22035;DHT22;11181;51.002;4.356;2023-06-19T09:18:03;25.10;99.90
22035;DHT22;11181;51.002;4.356;2023-06-19T09:20:30;25.30;99.90
22035;DHT22;11181;51.002;4.356;2023-06-19T09:22:59;25.50;99.90
22035;DHT22;11181;51.002;4.356;2023-06-19T09:25:26;25.80;99.90
22035;DHT22;11181;51.002;4.356;2023-06-19T09:27:53;25.70;99.90
22035;DHT22;11181;51.002;4.356;2023-06-19T09:30:21;25.90;99.90
22035;DHT22;11181;51.002;4.356;2023-06-19T09:32:48;26.10;99.90
22035;DHT22;11181;51.002;4.356;2023-06-19T09:35:15;25.90;99.90
22035;DHT22;11181;51.002;4.356;2023-06-19T09:37:43;26.00;99.90
22035;DHT22;11181;51.002;4.356;2023-06-19T09:40:13;26.00;99.90
22035;DHT22;11181;51.002;4.356;2023-06-19T09:42:41;26.10;99.90
22035;DHT22;11181;51.002;4.356;2023-06-19T09:45:11;25.80;99.90
22035;DHT22;11181;51.002;4.356;2023-06-19T09:47:43;25.60;99.90
22035;DHT22;11181;51.002;4.356;2023-06-19T09:50:13;25.70;99.90
22035;DHT22;11181;51.002;4.356;2023-06-19T09:52:40;25.70;99.90
22035;DHT22;11181;51.002;4.356;2023-06-19T09:55:09;25.80;99.90
22035;DHT22;11181;51.002;4.356;2023-06-19T09:57:40;25.90;99.90
22035;DHT22;11181;51.002;4.356;2023-06-19T10:00:09;25.70;99.90
22035;DHT22;11181;51.002;4.356;2023-06-19T10:02:39;25.80;99.90
22035;DHT22;11181;51.002;4.356;2023-06-19T10:05:07;25.60;99.90
22035;DHT22;11181;51.002;4.356;2023-06-19T10:07:40;25.30;99.90
22035;DHT22;11181;51.002;4.356;2023-06-19T10:10:10;25.20;99.90
22035;DHT22;11181;51.002;4.356;2023-06-19T10:12:41;25.10;99.90
22035;DHT22;11181;51.002;4.356;2023-06-19T10:15:15;25.10;99.90
22035;DHT22;11181;51.002;4.356;2023-06-19T10:17:47;25.20;99.90
22035;DHT22;11181;51.002;4.356;2023-06-19T10:20:25;25.30;99.90
22035;DHT22;11181;51.002;4.356;2023-06-19T10:23:05;25.80;99.90
22035;DHT22;11181;51.002;4.356;2023-06-19T10:25:34;26.40;99.90
22035;DHT22;11181;51.002;4.356;2023-06-19T10:28:03;26.70;99.90
22035;DHT22;11181;51.002;4.356;2023-06-19T10:30:32;26.90;99.90
22035;DHT22;11181;51.002;4.356;2023-06-19T10:33:00;26.70;99.90
22035;DHT22;11181;51.002;4.356;2023-06-19T10:35:37;26.60;99.90
22035;DHT22;11181;51.002;4.356;2023-06-19T10:38:05;26.90;99.90
22035;DHT22;11181;51.002;4.356;2023-06-19T10:40:32;27.00;99.90
22035;DHT22;11181;51.002;4.356;2023-06-19T10:42:59;27.00;99.90
22035;DHT22;11181;51.002;4.356;2023-06-19T10:45:27;27.10;99.90
22035;DHT22;11181;51.002;4.356;2023-06-19T10:47:55;27.30;99.90
22035;DHT22;11181;51.002;4.356;2023-06-19T10:50:22;27.40;99.90
22035;DHT22;11181;51.002;4.356;2023-06-19T10:52:53;27.70;99.90
22035;DHT22;11181;51.002;4.356;2023-06-19T10:55:21;28.00;99.90
22035;DHT22;11181;51.002;4.356;2023-06-19T10:57:49;28.10;99.90
22035;DHT22;11181;51.002;4.356;2023-06-19T11:00:28;28.30;99.90
22035;DHT22;11181;51.002;4.356;2023-06-19T11:02:56;28.70;99.90
22035;DHT22;11181;51.002;4.356;2023-06-19T11:05:24;28.90;99.90
22035;DHT22;11181;51.002;4.356;2023-06-19T11:07:52;28.70;99.90
22035;DHT22;11181;51.002;4.356;2023-06-19T11:10:20;28.70;99.90
22035;DHT22;11181;51.002;4.356;2023-06-19T11:12:48;28.80;99.90
22035;DHT22;11181;51.002;4.356;2023-06-19T11:15:15;29.10;99.90
22035;DHT22;11181;51.002;4.356;2023-06-19T11:17:43;29.40;99.90
22035;DHT22;11181;51.002;4.356;2023-06-19T11:20:11;29.60;99.90
22035;DHT22;11181;51.002;4.356;2023-06-19T11:22:39;29.70;99.90
22035;DHT22;11181;51.002;4.356;2023-06-19T11:25:08;29.60;99.90
22035;DHT22;11181;51.002;4.356;2023-06-19T11:27:37;29.60;99.90
22035;DHT22;11181;51.002;4.356;2023-06-19T11:30:05;29.40;99.90
22035;DHT22;11181;51.002;4.356;2023-06-19T11:32:34;29.60;99.90
22035;DHT22;11181;51.002;4.356;2023-06-19T11:35:09;29.80;99.90
22035;DHT22;11181;51.002;4.356;2023-06-19T11:37:39;30.10;99.90
22035;DHT22;11181;51.002;4.356;2023-06-19T11:40:07;30.20;99.90
22035;DHT22;11181;51.002;4.356;2023-06-19T11:42:47;30.30;99.90
22035;DHT22;11181;51.002;4.356;2023-06-19T11:45:14;30.10;99.90
22035;DHT22;11181;51.002;4.356;2023-06-19T11:47:43;30.30;99.90
22035;DHT22;11181;51.002;4.356;2023-06-19T11:50:15;30.50;99.90
22035;DHT22;11181;51.002;4.356;2023-06-19T11:52:43;30.80;99.90
22035;DHT22;11181;51.002;4.356;2023-06-19T11:55:11;30.90;99.90
22035;DHT22;11181;51.002;4.356;2023-06-19T11:57:38;30.90;99.90
22035;DHT22;11181;51.002;4.356;2023-06-19T12:00:14;30.90;99.90
22035;DHT22;11181;51.002;4.356;2023-06-19T12:02:41;31.10;99.90
22035;DHT22;11181;51.002;4.356;2023-06-19T12:05:08;31.30;99.90
22035;DHT22;11181;51.002;4.356;2023-06-19T12:07:37;31.30;99.90
22035;DHT22;11181;51.002;4.356;2023-06-19T12:10:05;31.20;99.90
22035;DHT22;11181;51.002;4.356;2023-06-19T12:12:35;31.40;99.50
22035;DHT22;11181;51.002;4.356;2023-06-19T12:15:05;31.50;99.90
22035;DHT22;11181;51.002;4.356;2023-06-19T12:17:32;31.20;99.90
22035;DHT22;11181;51.002;4.356;2023-06-19T12:19:58;31.20;99.90
22035;DHT22;11181;51.002;4.356;2023-06-19T12:22:26;31.20;99.90
22035;DHT22;11181;51.002;4.356;2023-06-19T12:24:55;31.40;99.80
22035;DHT22;11181;51.002;4.356;2023-06-19T12:27:24;31.50;99.40
22035;DHT22;11181;51.002;4.356;2023-06-19T12:29:51;31.60;99.90
22035;DHT22;11181;51.002;4.356;2023-06-19T12:32:18;31.80;98.00
22035;DHT22;11181;51.002;4.356;2023-06-19T12:34:47;31.80;97.50
22035;DHT22;11181;51.002;4.356;2023-06-19T12:37:14;31.80;97.70
22035;DHT22;11181;51.002;4.356;2023-06-19T12:39:43;31.50;98.60
22035;DHT22;11181;51.002;4.356;2023-06-19T12:42:12;31.50;99.00
22035;DHT22;11181;51.002;4.356;2023-06-19T12:44:39;31.50;98.60
22035;DHT22;11181;51.002;4.356;2023-06-19T12:47:07;31.70;97.50
22035;DHT22;11181;51.002;4.356;2023-06-19T12:49:34;31.90;97.20
22035;DHT22;11181;51.002;4.356;2023-06-19T12:52:01;32.00;96.90
22035;DHT22;11181;51.002;4.356;2023-06-19T12:54:28;32.10;97.10
22035;DHT22;11181;51.002;4.356;2023-06-19T12:56:55;32.30;96.00
22035;DHT22;11181;51.002;4.356;2023-06-19T12:59:23;32.50;96.00
22035;DHT22;11181;51.002;4.356;2023-06-19T13:01:50;32.60;95.10
22035;DHT22;11181;51.002;4.356;2023-06-19T13:04:17;32.70;94.10
22035;DHT22;11181;51.002;4.356;2023-06-19T13:06:44;32.60;94.20
22035;DHT22;11181;51.002;4.356;2023-06-19T13:09:11;32.50;95.30
22035;DHT22;11181;51.002;4.356;2023-06-19T13:11:38;32.50;95.00
22035;DHT22;11181;51.002;4.356;2023-06-19T13:14:05;32.50;95.10
22035;DHT22;11181;51.002;4.356;2023-06-19T13:16:33;32.40;94.30
22035;DHT22;11181;51.002;4.356;2023-06-19T13:19:00;32.50;94.60
22035;DHT22;11181;51.002;4.356;2023-06-19T13:21:26;32.80;94.50
22035;DHT22;11181;51.002;4.356;2023-06-19T13:23:53;32.50;94.70
22035;DHT22;11181;51.002;4.356;2023-06-19T13:26:20;31.90;94.60
22035;DHT22;11181;51.002;4.356;2023-06-19T13:28:47;31.90;94.30
22035;DHT22;11181;51.002;4.356;2023-06-19T13:31:14;32.30;94.60
22035;DHT22;11181;51.002;4.356;2023-06-19T13:33:42;32.30;93.70
22035;DHT22;11181;51.002;4.356;2023-06-19T13:36:09;32.50;93.40
22035;DHT22;11181;51.002;4.356;2023-06-19T13:38:36;32.50;91.90
22035;DHT22;11181;51.002;4.356;2023-06-19T13:41:03;32.30;92.10
22035;DHT22;11181;51.002;4.356;2023-06-19T13:43:31;32.60;92.40
22035;DHT22;11181;51.002;4.356;2023-06-19T13:45:59;32.70;91.70
22035;DHT22;11181;51.002;4.356;2023-06-19T13:48:26;32.80;91.50
22035;DHT22;11181;51.002;4.356;2023-06-19T13:50:54;33.00;91.90
22035;DHT22;11181;51.002;4.356;2023-06-19T13:53:23;33.20;91.20
22035;DHT22;11181;51.002;4.356;2023-06-19T13:55:50;33.40;91.00
22035;DHT22;11181;51.002;4.356;2023-06-19T13:58:17;33.50;91.00
22035;DHT22;11181;51.002;4.356;2023-06-19T14:00:44;33.50;89.00
22035;DHT22;11181;51.002;4.356;2023-06-19T14:03:13;33.40;89.00
22035;DHT22;11181;51.002;4.356;2023-06-19T14:05:40;33.20;90.30
22035;DHT22;11181;51.002;4.356;2023-06-19T14:08:09;33.20;90.30
22035;DHT22;11181;51.002;4.356;2023-06-19T14:10:36;33.40;89.20
22035;DHT22;11181;51.002;4.356;2023-06-19T14:13:03;33.60;89.00
22035;DHT22;11181;51.002;4.356;2023-06-19T14:15:29;33.70;89.70
22035;DHT22;11181;51.002;4.356;2023-06-19T14:17:56;33.80;89.90
22035;DHT22;11181;51.002;4.356;2023-06-19T14:20:24;34.00;88.60
22035;DHT22;11181;51.002;4.356;2023-06-19T14:22:51;34.00;87.90
22035;DHT22;11181;51.002;4.356;2023-06-19T14:25:19;33.80;87.70
22035;DHT22;11181;51.002;4.356;2023-06-19T14:27:46;33.90;87.10
22035;DHT22;11181;51.002;4.356;2023-06-19T14:30:13;33.80;87.60
22035;DHT22;11181;51.002;4.356;2023-06-19T14:32:40;33.80;87.20
22035;DHT22;11181;51.002;4.356;2023-06-19T14:35:07;33.80;86.00
22035;DHT22;11181;51.002;4.356;2023-06-19T14:37:34;33.90;86.50
22035;DHT22;11181;51.002;4.356;2023-06-19T14:40:01;33.90;87.80
22035;DHT22;11181;51.002;4.356;2023-06-19T14:42:31;33.50;88.10
22035;DHT22;11181;51.002;4.356;2023-06-19T14:44:58;33.30;87.60
22035;DHT22;11181;51.002;4.356;2023-06-19T14:47:25;33.20;87.30
22035;DHT22;11181;51.002;4.356;2023-06-19T14:49:52;33.10;86.70
22035;DHT22;11181;51.002;4.356;2023-06-19T14:52:19;33.20;86.00
22035;DHT22;11181;51.002;4.356;2023-06-19T14:54:46;33.40;87.50
22035;DHT22;11181;51.002;4.356;2023-06-19T14:57:13;33.40;85.00
22035;DHT22;11181;51.002;4.356;2023-06-19T14:59:41;33.30;84.70
22035;DHT22;11181;51.002;4.356;2023-06-19T15:02:08;33.20;85.20
22035;DHT22;11181;51.002;4.356;2023-06-19T15:04:36;33.10;86.60
22035;DHT22;11181;51.002;4.356;2023-06-19T15:07:04;33.00;87.00
22035;DHT22;11181;51.002;4.356;2023-06-19T15:09:31;33.00;88.30
22035;DHT22;11181;51.002;4.356;2023-06-19T15:11:58;33.10;87.60
22035;DHT22;11181;51.002;4.356;2023-06-19T15:14:26;33.10;88.40
22035;DHT22;11181;51.002;4.356;2023-06-19T15:16:54;33.00;86.70
22035;DHT22;11181;51.002;4.356;2023-06-19T15:19:21;33.00;88.60
22035;DHT22;11181;51.002;4.356;2023-06-19T15:21:49;33.00;87.90
22035;DHT22;11181;51.002;4.356;2023-06-19T15:24:16;32.80;89.30
22035;DHT22;11181;51.002;4.356;2023-06-19T15:26:43;32.50;90.00
22035;DHT22;11181;51.002;4.356;2023-06-19T15:29:10;32.40;90.00
22035;DHT22;11181;51.002;4.356;2023-06-19T15:31:37;32.20;90.30
22035;DHT22;11181;51.002;4.356;2023-06-19T15:34:05;32.30;90.50